Terminal Aerodrome Forecast
Issued by NWS

Home | Current Version | Previous Version | Text Only | Print | Product List | Glossary On
Versions: 1 2 3 4 5 6 7 8 9 10 11 12 13 14 15
000
FTUS43 KMQT 011122
TAFSAW
TAF
KSAW 011122Z 0112/0212 29006KT P6SM BKN100
     FM011300 30010G17KT P6SM SCT080
     FM011600 30013G19KT P6SM BKN080
     FM012300 29007KT P6SM SCT120
     FM020100 20004KT P6SM SCT080
     FM020600 22004KT P6SM BKN100=

USA.gov is the U.S. government's official web portal to all federal, state and local government web resources and services.